createdAt,value
2022-09-26T00:00:05.860Z,99074.53
2022-09-26T00:00:17.819Z,99079.75
2022-09-26T00:00:31.540Z,99075.31
2022-09-26T00:00:43.988Z,99078.69
2022-09-26T00:01:04.577Z,99075.06
2022-09-26T00:01:22.478Z,99077.06
2022-09-26T00:01:37.659Z,99076.06
2022-09-26T00:01:49.757Z,99073.47
2022-09-26T00:02:01.763Z,99084.66
2022-09-26T00:02:13.734Z,99069.78
2022-09-26T00:02:28.780Z,99077.66
2022-09-26T00:02:40.832Z,99074.06
2022-09-26T00:02:52.776Z,99074.81
2022-09-26T00:03:04.738Z,99070.34
2022-09-26T00:03:16.701Z,99070.34
2022-09-26T00:03:28.597Z,99071.28
2022-09-26T00:03:46.733Z,99076.72
2022-09-26T00:04:01.883Z,99074.31
2022-09-26T00:04:15.866Z,99072.44
2022-09-26T00:04:32.626Z,99075.91
2022-09-26T00:04:45.042Z,99075.75
2022-09-26T00:04:56.926Z,99072.19
2022-09-26T00:05:11.003Z,99072.19
2022-09-26T00:05:22.954Z,99071.38
2022-09-26T00:05:35.901Z,99077.41
2022-09-26T00:05:47.914Z,99080.03
2022-09-26T00:06:01.839Z,99079.28
2022-09-26T00:06:16.050Z,99074.06
2022-09-26T00:06:28.372Z,99075.91
2022-09-26T00:06:40.256Z,99075.13
2022-09-26T00:06:54.289Z,99069.00
2022-09-26T00:07:06.196Z,99075.00
2022-09-26T00:07:18.591Z,99070.69
2022-09-26T00:07:31.067Z,99075.00
2022-09-26T00:07:42.960Z,99075.91
2022-09-26T00:07:54.852Z,99075.00
2022-09-26T00:08:07.671Z,99072.38
2022-09-26T00:08:19.720Z,99077.75
2022-09-26T00:08:32.163Z,99073.34
2022-09-26T00:08:45.405Z,99072.78
2022-09-26T00:08:57.489Z,99074.53
2022-09-26T00:09:10.121Z,99077.91
2022-09-26T00:09:24.464Z,99076.91
2022-09-26T00:09:36.340Z,99076.84
2022-09-26T00:09:48.791Z,99072.53
2022-09-26T00:10:00.663Z,99078.56
2022-09-26T00:10:12.566Z,99070.00
2022-09-26T00:10:24.495Z,99075.13
2022-09-26T00:10:36.374Z,99075.13
2022-09-26T00:10:57.646Z,99075.22
2022-09-26T00:11:11.121Z,99077.75
2022-09-26T00:11:30.086Z,99070.00
2022-09-26T00:11:43.143Z,99074.53
2022-09-26T00:11:55.404Z,99073.69
2022-09-26T00:12:07.571Z,99076.22
2022-09-26T00:12:19.471Z,99079.75
2022-09-26T00:12:31.372Z,99072.69
2022-09-26T00:12:43.448Z,99078.50
2022-09-26T00:12:56.175Z,99075.00
2022-09-26T00:13:08.074Z,99072.44
2022-09-26T00:13:19.958Z,99076.72
2022-09-26T00:13:32.613Z,99077.59
2022-09-26T00:13:44.696Z,99079.28
2022-09-26T00:14:00.187Z,99078.69
2022-09-26T00:14:18.813Z,99079.44
2022-09-26T00:14:30.727Z,99071.50
2022-09-26T00:14:42.910Z,99079.44
2022-09-26T00:14:54.850Z,99073.28
2022-09-26T00:15:07.599Z,99077.59
2022-09-26T00:15:19.537Z,99080.09
2022-09-26T00:15:31.443Z,99075.75
2022-09-26T00:15:43.332Z,99080.78
2022-09-26T00:15:56.226Z,99079.88
2022-09-26T00:16:10.236Z,99079.97
2022-09-26T00:16:23.156Z,99075.75
2022-09-26T00:16:35.698Z,99074.88
2022-09-26T00:16:48.488Z,99079.44
2022-09-26T00:17:00.472Z,99077.75
2022-09-26T00:17:12.745Z,99076.84
2022-09-26T00:17:24.720Z,99076.72
2022-09-26T00:17:36.763Z,99081.03
2022-09-26T00:17:49.002Z,99081.13
2022-09-26T00:18:00.910Z,99080.28
2022-09-26T00:18:12.783Z,99079.44
2022-09-26T00:18:24.948Z,99081.03
2022-09-26T00:18:37.501Z,99075.75
2022-09-26T00:18:50.754Z,99079.13
2022-09-26T00:19:04.371Z,99083.31
2022-09-26T00:19:17.075Z,99073.72
2022-09-26T00:19:28.963Z,99074.59
2022-09-26T00:19:40.899Z,99080.66
2022-09-26T00:19:52.791Z,99076.25
2022-09-26T00:20:05.159Z,99071.28
2022-09-26T00:20:17.458Z,99080.66
2022-09-26T00:20:29.343Z,99074.59
2022-09-26T00:20:41.248Z,99075.50
2022-09-26T00:20:53.167Z,99075.91
2022-09-26T00:21:07.705Z,99072.59
2022-09-26T00:21:21.107Z,99077.91
2022-09-26T00:21:33.161Z,99078.25
2022-09-26T00:21:45.393Z,99069.47
2022-09-26T00:21:57.370Z,99071.00
2022-09-26T00:22:09.286Z,99072.78
2022-09-26T00:22:21.156Z,99075.13
2022-09-26T00:22:33.053Z,99073.28
2022-09-26T00:22:44.931Z,99070.53
2022-09-26T00:22:56.876Z,99072.13
2022-09-26T00:23:08.794Z,99069.44
2022-09-26T00:23:20.676Z,99067.59
2022-09-26T00:23:32.831Z,99065.91
2022-09-26T00:23:45.482Z,99070.28
2022-09-26T00:23:58.948Z,99069.38
2022-09-26T00:24:11.117Z,99063.28
2022-09-26T00:24:23.063Z,99070.22
2022-09-26T00:24:35.102Z,99065.00
2022-09-26T00:24:47.093Z,99069.28
2022-09-26T00:24:59.052Z,99070.03
2022-09-26T00:25:10.974Z,99069.97
2022-09-26T00:25:22.915Z,99064.66
2022-09-26T00:25:35.126Z,99061.13
2022-09-26T00:25:51.630Z,99062.88
2022-09-26T00:26:04.443Z,99070.72
2022-09-26T00:26:18.222Z,99062.88
2022-09-26T00:26:32.031Z,99063.81
2022-09-26T00:26:44.434Z,99056.06
2022-09-26T00:26:56.334Z,99060.34
2022-09-26T00:27:08.203Z,99058.59
2022-09-26T00:27:20.888Z,99057.75
2022-09-26T00:27:32.898Z,99055.91
2022-09-26T00:27:45.390Z,99064.59
2022-09-26T00:27:57.431Z,99057.59
2022-09-26T00:28:09.332Z,99059.25
2022-09-26T00:28:21.204Z,99061.13
2022-09-26T00:28:33.504Z,99063.56
2022-09-26T00:28:45.981Z,99061.75
2022-09-26T00:28:59.080Z,99065.19
2022-09-26T00:29:13.015Z,99066.03
2022-09-26T00:29:25.072Z,99066.19
2022-09-26T00:29:36.970Z,99061.97
2022-09-26T00:29:48.855Z,99061.28
2022-09-26T00:30:00.728Z,99071.72
2022-09-26T00:30:12.764Z,99059.78
2022-09-26T00:30:24.747Z,99064.81
2022-09-26T00:30:37.238Z,99063.13
2022-09-26T00:30:49.276Z,99063.28
2022-09-26T00:31:10.417Z,99065.00
2022-09-26T00:31:27.116Z,99063.28
2022-09-26T00:31:41.859Z,99066.66
2022-09-26T00:31:53.758Z,99067.34
2022-09-26T00:32:06.290Z,99058.75
2022-09-26T00:32:18.249Z,99061.28
2022-09-26T00:32:30.152Z,99063.97
2022-09-26T00:32:42.077Z,99061.44
2022-09-26T00:32:53.974Z,99064.22
2022-09-26T00:33:05.845Z,99063.28
2022-09-26T00:33:17.764Z,99066.84
2022-09-26T00:33:29.724Z,99058.06
2022-09-26T00:33:41.858Z,99061.44
2022-09-26T00:33:53.903Z,99066.84
2022-09-26T00:34:06.385Z,99066.16
2022-09-26T00:34:19.688Z,99057.59
2022-09-26T00:34:31.617Z,99063.41
2022-09-26T00:34:43.507Z,99067.03
2022-09-26T00:34:55.400Z,99059.03
2022-09-26T00:35:07.704Z,99060.75
2022-09-26T00:35:19.688Z,99060.56
2022-09-26T00:35:31.664Z,99057.03
2022-09-26T00:35:51.197Z,99056.88
2022-09-26T00:36:03.966Z,99061.19
2022-09-26T00:36:16.537Z,99058.56
2022-09-26T00:36:37.398Z,99063.03
2022-09-26T00:36:50.195Z,99062.09
2022-09-26T00:37:02.105Z,99062.41
2022-09-26T00:37:14.021Z,99058.03
2022-09-26T00:37:25.959Z,99058.91
2022-09-26T00:37:37.835Z,99060.56
2022-09-26T00:37:49.722Z,99051.91
2022-09-26T00:38:02.221Z,99062.25
2022-09-26T00:38:14.106Z,99056.28
2022-09-26T00:38:26.165Z,99060.56
2022-09-26T00:38:38.107Z,99058.03
2022-09-26T00:38:49.996Z,99065.72
2022-09-26T00:39:02.018Z,99057.03
2022-09-26T00:39:15.316Z,99057.88
2022-09-26T00:39:27.454Z,99057.19
2022-09-26T00:39:39.410Z,99057.38
2022-09-26T00:39:51.324Z,99056.50
2022-09-26T00:40:04.358Z,99057.38
2022-09-26T00:40:16.554Z,99055.59
2022-09-26T00:40:30.433Z,99052.97
2022-09-26T00:40:42.672Z,99055.75
2022-09-26T00:40:54.765Z,99056.69
2022-09-26T00:41:07.373Z,99059.34
2022-09-26T00:41:19.377Z,99054.59
2022-09-26T00:41:31.281Z,99050.63
2022-09-26T00:41:43.834Z,99055.63
2022-09-26T00:41:55.762Z,99052.75
2022-09-26T00:42:12.667Z,99053.31
2022-09-26T00:42:24.671Z,99056.00
2022-09-26T00:42:36.619Z,99058.84
2022-09-26T00:42:48.536Z,99059.69
2022-09-26T00:43:00.422Z,99059.69
2022-09-26T00:43:37.693Z,99059.59
2022-09-26T00:43:52.143Z,99055.38
2022-09-26T00:44:35.246Z,99052.47
2022-09-26T00:44:54.796Z,99051.53
2022-09-26T00:45:08.761Z,99057.50
2022-09-26T00:45:23.748Z,99054.06
2022-09-26T00:45:35.990Z,99054.91
2022-09-26T00:45:48.529Z,99053.22
2022-09-26T00:46:36.454Z,99054.00
2022-09-26T00:46:49.131Z,99050.63
2022-09-26T00:47:01.873Z,99050.53
2022-09-26T00:47:44.917Z,99054.31
2022-09-26T00:48:03.960Z,99057.38
2022-09-26T00:48:17.705Z,99051.97
2022-09-26T00:48:30.616Z,99051.91
2022-09-26T00:48:46.322Z,99057.03
2022-09-26T00:49:25.618Z,99054.25
2022-09-26T00:49:42.323Z,99046.75
2022-09-26T00:50:02.161Z,99053.69
2022-09-26T00:50:22.651Z,99049.38
2022-09-26T00:50:39.243Z,99051.06
2022-09-26T00:50:52.668Z,99050.88
2022-09-26T00:51:06.112Z,99051.06
2022-09-26T00:51:18.285Z,99050.38
2022-09-26T00:51:31.700Z,99052.47
2022-09-26T00:51:49.027Z,99050.78
2022-09-26T00:52:07.441Z,99054.97
2022-09-26T00:52:28.175Z,99054.13
2022-09-26T00:52:45.227Z,99052.63
2022-09-26T00:53:09.017Z,99057.13
2022-09-26T00:53:27.290Z,99055.84
2022-09-26T00:53:45.299Z,99049.81
2022-09-26T00:53:57.414Z,99056.75
2022-09-26T00:54:14.008Z,99048.03
2022-09-26T00:54:28.388Z,99056.63
2022-09-26T00:54:45.211Z,99061.84
2022-09-26T00:55:01.242Z,99056.09
2022-09-26T00:55:15.078Z,99059.63
2022-09-26T00:55:31.083Z,99058.59
2022-09-26T00:55:54.663Z,99058.00
2022-09-26T00:56:18.425Z,99062.28
2022-09-26T00:56:35.909Z,99056.25
2022-09-26T00:56:53.478Z,99053.56
2022-09-26T00:57:15.556Z,99054.78
2022-09-26T00:57:35.630Z,99058.47
2022-09-26T00:57:54.044Z,99059.94
2022-09-26T00:58:19.133Z,99057.38
2022-09-26T00:58:35.481Z,99060.94
2022-09-26T00:58:55.845Z,99064.13
2022-09-26T00:59:29.496Z,99055.03
2022-09-26T00:59:48.581Z,99062.06
2022-09-26T01:00:08.784Z,99053.88
2022-09-26T01:00:21.238Z,99055.09
2022-09-26T01:00:34.204Z,99054.00
2022-09-26T01:00:47.899Z,99053.69
2022-09-26T01:01:00.668Z,99056.31
2022-09-26T01:01:14.004Z,99057.06
2022-09-26T01:01:26.259Z,99055.22
2022-09-26T01:01:38.857Z,99059.69
2022-09-26T01:01:53.321Z,99056.75
2022-09-26T01:02:05.895Z,99058.47
2022-09-26T01:02:18.698Z,99051.72
2022-09-26T01:02:31.165Z,99058.47
2022-09-26T01:02:46.717Z,99051.72
2022-09-26T01:02:58.827Z,99052.03
2022-09-26T01:03:10.709Z,99053.56
2022-09-26T01:03:24.631Z,99050.97
2022-09-26T01:03:39.408Z,99056.94
2022-09-26T01:03:51.982Z,99045.66
2022-09-26T01:04:07.235Z,99049.19
2022-09-26T01:04:19.813Z,99053.56
2022-09-26T01:04:34.451Z,99050.19
2022-09-26T01:04:47.600Z,99054.00
2022-09-26T01:05:00.181Z,99048.81
2022-09-26T01:05:15.677Z,99048.66
2022-09-26T01:05:28.121Z,99049.75
2022-09-26T01:05:40.114Z,99051.41
2022-09-26T01:05:52.175Z,99047.91
2022-09-26T01:06:04.207Z,99047.66
2022-09-26T01:06:17.329Z,99046.97
2022-09-26T01:06:29.482Z,99040.84
2022-09-26T01:06:41.964Z,99047.81
2022-09-26T01:06:59.782Z,99036.22
2022-09-26T01:07:21.069Z,99041.59
2022-09-26T01:07:34.204Z,99045.81
2022-09-26T01:07:46.852Z,99037.75
2022-09-26T01:07:59.133Z,99046.81
2022-09-26T01:08:13.182Z,99044.28
2022-09-26T01:08:51.064Z,99042.97
2022-09-26T01:09:08.860Z,99045.44
2022-09-26T01:09:21.091Z,99046.34
2022-09-26T01:09:33.210Z,99045.19
2022-09-26T01:09:47.439Z,99041.28
2022-09-26T01:10:00.499Z,99043.81
2022-09-26T01:10:13.147Z,99046.19
2022-09-26T01:10:25.243Z,99043.06
2022-09-26T01:10:38.004Z,99050.19
2022-09-26T01:10:50.416Z,99047.44
2022-09-26T01:11:03.567Z,99049.13
2022-09-26T01:11:17.083Z,99049.88
2022-09-26T01:11:31.930Z,99046.38
2022-09-26T01:11:45.261Z,99046.81
2022-09-26T01:11:59.847Z,99045.88
2022-09-26T01:12:12.511Z,99040.53
2022-09-26T01:12:24.645Z,99052.88
2022-09-26T01:12:38.115Z,99047.66
2022-09-26T01:12:51.304Z,99047.50
2022-09-26T01:13:04.775Z,99038.81
2022-09-26T01:13:17.146Z,99046.66
2022-09-26T01:13:32.891Z,99041.22
2022-09-26T01:13:45.268Z,99044.59
2022-09-26T01:13:58.069Z,99045.44
2022-09-26T01:14:12.507Z,99052.41
2022-09-26T01:14:24.899Z,99044.97
2022-09-26T01:14:40.235Z,99050.34
2022-09-26T01:14:55.092Z,99040.78
2022-09-26T01:15:09.053Z,99039.75
2022-09-26T01:15:21.086Z,99046.66
2022-09-26T01:15:34.834Z,99045.81
2022-09-26T01:15:46.734Z,99045.56
2022-09-26T01:15:58.628Z,99043.81
2022-09-26T01:16:10.649Z,99042.13
2022-09-26T01:16:22.650Z,99047.59
2022-09-26T01:16:36.273Z,99044.53
2022-09-26T01:16:54.078Z,99047.13
2022-09-26T01:17:06.823Z,99046.97
2022-09-26T01:17:19.925Z,99043.59
2022-09-26T01:17:32.182Z,99050.50
2022-09-26T01:17:45.540Z,99042.44
2022-09-26T01:17:57.757Z,99045.91
2022-09-26T01:18:09.785Z,99051.19
2022-09-26T01:18:21.810Z,99048.19
2022-09-26T01:18:34.906Z,99047.75
2022-09-26T01:18:47.843Z,99048.66
2022-09-26T01:19:03.885Z,99042.53
2022-09-26T01:19:22.011Z,99045.22
2022-09-26T01:19:49.347Z,99047.28
2022-09-26T01:20:03.797Z,99040.53
2022-09-26T01:20:38.781Z,99043.38
2022-09-26T01:21:33.366Z,99045.91
2022-09-26T01:22:10.877Z,99036.69
2022-09-26T01:22:56.815Z,99043.00
2022-09-26T01:23:23.427Z,99041.47
2022-09-26T01:23:44.047Z,99041.91
2022-09-26T01:24:08.252Z,99035.69
2022-09-26T01:24:48.253Z,99032.00
2022-09-26T01:25:21.525Z,99033.78
2022-09-26T01:25:59.092Z,99032.84
2022-09-26T01:26:29.347Z,99032.09
2022-09-26T01:27:18.604Z,99028.38
2022-09-26T01:27:45.330Z,99030.09
2022-09-26T01:28:04.684Z,99032.53
2022-09-26T01:28:44.428Z,99029.78
2022-09-26T01:29:05.733Z,99030.84
2022-09-26T01:29:17.626Z,99032.53
2022-09-26T01:29:29.443Z,99025.63
2022-09-26T01:30:06.593Z,99027.50
2022-09-26T01:30:26.521Z,99030.69
2022-09-26T01:30:44.187Z,99025.31
2022-09-26T01:31:33.283Z,99030.53
2022-09-26T01:32:24.771Z,99026.16
2022-09-26T01:33:07.535Z,99025.06
2022-09-26T01:33:29.383Z,99031.88
2022-09-26T01:33:49.672Z,99024.56
2022-09-26T01:34:07.518Z,99027.00
2022-09-26T01:34:27.919Z,99034.75
2022-09-26T01:35:11.041Z,99021.72
2022-09-26T01:35:32.167Z,99032.69
2022-09-26T01:36:19.854Z,99023.84
2022-09-26T01:36:54.604Z,99027.22
2022-09-26T01:37:14.385Z,99024.69
2022-09-26T01:37:32.041Z,99025.63
2022-09-26T01:38:20.136Z,99026.38
2022-09-26T01:38:37.843Z,99022.84
2022-09-26T01:39:16.537Z,99027.91
2022-09-26T01:39:31.089Z,99029.56
2022-09-26T01:39:58.148Z,99036.50
2022-09-26T01:40:22.018Z,99030.34
2022-09-26T01:40:54.211Z,99034.66
2022-09-26T01:41:18.473Z,99028.75
2022-09-26T01:42:02.854Z,99032.75
2022-09-26T01:42:23.550Z,99036.28
2022-09-26T01:42:52.348Z,99036.19
2022-09-26T01:43:25.750Z,99036.06
2022-09-26T01:43:45.722Z,99036.97
2022-09-26T01:44:25.135Z,99036.19
2022-09-26T01:44:48.963Z,99037.44
2022-09-26T01:45:11.245Z,99038.38
2022-09-26T01:45:29.119Z,99037.59
2022-09-26T01:46:07.953Z,99035.44
2022-09-26T01:46:34.169Z,99033.28
2022-09-26T01:47:13.555Z,99035.56
2022-09-26T01:47:49.930Z,99032.13
2022-09-26T01:48:19.805Z,99029.47
2022-09-26T01:48:39.610Z,99034.44
2022-09-26T01:49:03.061Z,99023.94
2022-09-26T01:49:26.135Z,99034.06
2022-09-26T01:49:56.924Z,99035.44
2022-09-26T01:50:22.506Z,99035.44
2022-09-26T01:50:43.210Z,99033.59
2022-09-26T01:51:00.517Z,99030.84
2022-09-26T01:51:29.915Z,99035.44
2022-09-26T01:51:59.722Z,99034.50
2022-09-26T01:52:20.959Z,99037.97
2022-09-26T01:52:45.441Z,99035.13
2022-09-26T01:53:06.364Z,99031.59
2022-09-26T01:53:34.434Z,99029.13
2022-09-26T01:53:55.571Z,99026.38
2022-09-26T01:54:39.157Z,99030.53
2022-09-26T01:55:07.053Z,99030.34
2022-09-26T01:55:29.703Z,99031.09
2022-09-26T01:55:49.874Z,99031.09
2022-09-26T01:56:26.400Z,99029.25
2022-09-26T01:56:40.449Z,99031.09
2022-09-26T01:56:58.257Z,99029.31
2022-09-26T01:57:15.835Z,99028.50
2022-09-26T01:57:34.073Z,99026.81
2022-09-26T01:58:10.077Z,99023.19
2022-09-26T01:58:40.866Z,99026.81
2022-09-26T01:58:58.673Z,99022.69
2022-09-26T01:59:20.173Z,99028.13
2022-09-26T01:59:38.415Z,99027.16
2022-09-26T01:59:55.187Z,99027.03
2022-09-26T02:00:12.451Z,99029.56
2022-09-26T02:00:24.720Z,99025.19
2022-09-26T02:00:39.754Z,99027.72
2022-09-26T02:00:52.708Z,99026.06
2022-09-26T02:01:10.816Z,99024.97
2022-09-26T02:01:27.851Z,99025.88
2022-09-26T02:01:43.593Z,99028.50
2022-09-26T02:02:02.834Z,99025.63
2022-09-26T02:02:21.382Z,99025.16
2022-09-26T02:02:39.295Z,99021.88
2022-09-26T02:02:51.449Z,99028.06
2022-09-26T02:03:08.775Z,99027.31
2022-09-26T02:03:27.323Z,99022.09
2022-09-26T02:03:47.455Z,99020.09
2022-09-26T02:04:08.404Z,99018.25
2022-09-26T02:04:25.328Z,99024.31
2022-09-26T02:04:42.689Z,99020.09
2022-09-26T02:05:20.483Z,99023.00
2022-09-26T02:05:38.188Z,99022.00
2022-09-26T02:05:59.577Z,99020.41
2022-09-26T02:06:28.835Z,99023.63
2022-09-26T02:06:49.429Z,99022.78
2022-09-26T02:07:11.691Z,99022.28
2022-09-26T02:07:31.685Z,99013.50
2022-09-26T02:07:50.499Z,99018.72
2022-09-26T02:08:06.891Z,99020.25
2022-09-26T02:08:27.168Z,99020.25
2022-09-26T02:08:43.205Z,99015.22
2022-09-26T02:09:04.303Z,99022.78
2022-09-26T02:09:28.411Z,99022.84
2022-09-26T02:09:48.824Z,99017.31
2022-09-26T02:10:07.635Z,99020.63
2022-09-26T02:10:28.829Z,99021.47
2022-09-26T02:10:48.981Z,99016.34
2022-09-26T02:11:09.361Z,99012.09
2022-09-26T02:11:21.423Z,99010.69
2022-09-26T02:11:33.442Z,99012.59
2022-09-26T02:11:49.714Z,99013.19
2022-09-26T02:12:06.542Z,99015.91
2022-09-26T02:12:27.454Z,99016.72
2022-09-26T02:12:45.505Z,99014.91
2022-09-26T02:13:04.616Z,99007.91
2022-09-26T02:13:22.402Z,99006.81
2022-09-26T02:13:51.041Z,99011.97
2022-09-26T02:14:19.396Z,99008.59
2022-09-26T02:14:36.501Z,99007.66
2022-09-26T02:14:52.329Z,99010.59
2022-09-26T02:15:08.650Z,99012.34
2022-09-26T02:15:25.534Z,99009.69
2022-09-26T02:15:38.730Z,99009.69
2022-09-26T02:15:56.210Z,99010.50
2022-09-26T02:16:14.472Z,99009.34
2022-09-26T02:16:48.245Z,99002.63
2022-09-26T02:17:22.457Z,99005.81
2022-09-26T02:17:41.465Z,99009.22
2022-09-26T02:18:01.206Z,99007.50
2022-09-26T02:18:52.080Z,99009.50
2022-09-26T02:19:12.747Z,99005.09
2022-09-26T02:19:52.165Z,99007.72
2022-09-26T02:20:11.627Z,99006.00
2022-09-26T02:20:32.485Z,99000.97
2022-09-26T02:20:51.873Z,99003.41
2022-09-26T02:21:12.601Z,99007.09
2022-09-26T02:21:25.121Z,99003.78
2022-09-26T02:21:37.352Z,99001.03
2022-09-26T02:21:50.368Z,99007.09
2022-09-26T02:22:02.886Z,99002.81
2022-09-26T02:22:14.981Z,98998.75
2022-09-26T02:22:31.657Z,98997.81
2022-09-26T02:22:44.064Z,98995.13
2022-09-26T02:22:59.081Z,99004.03
2022-09-26T02:23:11.128Z,99002.03
2022-09-26T02:23:23.155Z,99001.19
2022-09-26T02:23:35.111Z,99001.88
2022-09-26T02:23:48.854Z,99000.03
2022-09-26T02:24:01.789Z,98998.94
2022-09-26T02:24:14.323Z,98999.72
2022-09-26T02:24:27.234Z,98994.28
2022-09-26T02:24:39.404Z,99001.22
2022-09-26T02:24:52.581Z,98999.56
2022-09-26T02:25:05.212Z,98997.88
2022-09-26T02:25:17.207Z,98999.56
2022-09-26T02:25:29.935Z,98993.34
2022-09-26T02:25:41.831Z,98995.09
2022-09-26T02:25:55.107Z,98999.50
2022-09-26T02:26:07.628Z,99000.19
2022-09-26T02:26:20.090Z,98995.97
2022-09-26T02:26:33.625Z,99002.81
2022-09-26T02:26:46.161Z,98996.06
2022-09-26T02:26:58.148Z,98998.56
2022-09-26T02:27:10.140Z,98992.38
2022-09-26T02:27:22.115Z,98996.84
2022-09-26T02:27:34.844Z,98992.53
2022-09-26T02:27:48.459Z,99002.03
2022-09-26T02:28:00.997Z,98994.06
2022-09-26T02:28:14.242Z,98993.84
2022-09-26T02:28:26.276Z,98993.84
2022-09-26T02:28:38.481Z,98999.72
2022-09-26T02:28:50.740Z,98999.72
2022-09-26T02:29:02.715Z,98998.88
2022-09-26T02:29:15.425Z,98996.28
2022-09-26T02:29:27.941Z,98990.97
2022-09-26T02:29:40.459Z,98994.50
2022-09-26T02:29:52.520Z,98992.97
2022-09-26T02:30:07.069Z,98995.50
2022-09-26T02:30:19.047Z,98992.81
2022-09-26T02:30:31.096Z,98991.13
2022-09-26T02:30:46.878Z,98995.34
2022-09-26T02:31:01.203Z,98995.50
2022-09-26T02:31:20.414Z,98994.66
2022-09-26T02:31:36.539Z,98990.97
2022-09-26T02:31:55.854Z,98992.13
2022-09-26T02:32:15.916Z,98992.31
2022-09-26T02:32:30.995Z,98983.63
2022-09-26T02:32:43.166Z,98988.91
2022-09-26T02:32:55.164Z,98986.22
2022-09-26T02:33:07.076Z,98986.22
2022-09-26T02:33:19.235Z,98984.69
2022-09-26T02:33:31.309Z,98990.22
2022-09-26T02:33:43.714Z,98984.13
2022-09-26T02:33:56.447Z,98997.03
2022-09-26T02:34:08.591Z,98984.19
2022-09-26T02:34:20.584Z,98991.06
2022-09-26T02:34:33.189Z,98993.59
2022-09-26T02:34:48.192Z,98985.78
2022-09-26T02:35:01.152Z,98989.91
2022-09-26T02:35:31.784Z,98986.41
2022-09-26T02:35:55.591Z,98984.88
2022-09-26T02:36:10.247Z,98994.97
2022-09-26T02:36:23.178Z,98989.00
2022-09-26T02:36:36.532Z,98984.56
2022-09-26T02:36:48.995Z,98985.47
2022-09-26T02:37:01.169Z,98989.91
2022-09-26T02:37:15.736Z,98987.47
2022-09-26T02:37:30.897Z,98990.84
2022-09-26T02:37:42.789Z,98988.00
2022-09-26T02:37:54.896Z,98988.00
2022-09-26T02:38:07.060Z,98988.19
2022-09-26T02:38:18.962Z,98986.16
2022-09-26T02:38:31.767Z,98986.41
2022-09-26T02:38:43.839Z,98983.50
2022-09-26T02:38:55.853Z,98980.88
2022-09-26T02:39:10.605Z,98986.72
2022-09-26T02:39:23.104Z,98987.31
2022-09-26T02:39:36.416Z,98982.09
2022-09-26T02:39:52.992Z,98983.03
2022-09-26T02:40:05.468Z,98983.03
2022-09-26T02:40:18.957Z,98986.41
2022-09-26T02:41:14.867Z,98981.34
2022-09-26T02:41:44.749Z,98984.19
2022-09-26T02:42:21.117Z,98983.16
2022-09-26T02:42:53.417Z,98982.72
2022-09-26T02:43:49.980Z,98978.66
2022-09-26T02:44:12.019Z,98985.16
2022-09-26T02:45:00.610Z,98980.19
2022-09-26T02:45:26.101Z,98980.88
2022-09-26T02:45:51.542Z,98980.09
2022-09-26T02:46:15.091Z,98980.88
2022-09-26T02:46:51.329Z,98978.09
2022-09-26T02:47:27.533Z,98977.00
2022-09-26T02:48:15.709Z,98982.22
2022-09-26T02:48:55.363Z,98972.97
2022-09-26T02:49:13.203Z,98985.00
2022-09-26T02:49:45.331Z,98976.13
2022-09-26T02:50:34.937Z,98977.19
2022-09-26T02:51:08.788Z,98973.59
2022-09-26T02:51:58.292Z,98980.50
2022-09-26T02:52:17.154Z,98973.59
2022-09-26T02:52:41.897Z,98969.22
2022-09-26T02:53:18.324Z,98971.06
2022-09-26T02:53:44.028Z,98971.97
2022-09-26T02:54:22.708Z,98974.44
2022-09-26T02:54:40.472Z,98969.22
2022-09-26T02:55:07.302Z,98968.28
2022-09-26T02:55:26.950Z,98968.03
2022-09-26T02:55:44.817Z,98967.34
2022-09-26T02:56:03.516Z,98967.00
2022-09-26T02:56:27.457Z,98970.13
2022-09-26T02:57:06.703Z,98964.94
2022-09-26T02:57:22.831Z,98969.38
2022-09-26T02:57:45.560Z,98969.38
2022-09-26T02:58:06.395Z,98964.03
2022-09-26T02:58:36.146Z,98968.16
2022-09-26T02:59:00.073Z,98966.38
2022-09-26T02:59:17.588Z,98958.50
2022-09-26T02:59:47.299Z,98966.38
2022-09-26T03:00:08.378Z,98963.69
2022-09-26T03:00:39.289Z,98961.03
2022-09-26T03:01:15.955Z,98960.34
2022-09-26T03:01:34.932Z,98958.81
2022-09-26T03:02:11.474Z,98965.53
2022-09-26T03:02:31.515Z,98958.63
2022-09-26T03:02:56.752Z,98958.81
2022-09-26T03:03:35.560Z,98956.72
2022-09-26T03:03:53.602Z,98963.53
2022-09-26T03:04:15.100Z,98962.00
2022-09-26T03:04:34.350Z,98962.19
2022-09-26T03:04:54.969Z,98957.09
2022-09-26T03:05:15.220Z,98958.63
2022-09-26T03:05:44.272Z,98964.03
2022-09-26T03:06:01.106Z,98962.38
2022-09-26T03:06:21.925Z,98960.66
2022-09-26T03:06:41.698Z,98952.06
2022-09-26T03:07:00.018Z,98965.16
2022-09-26T03:07:16.637Z,98965.00
2022-09-26T03:07:36.975Z,98959.78
2022-09-26T03:07:59.649Z,98960.47
2022-09-26T03:08:17.126Z,98961.09
2022-09-26T03:08:33.385Z,98951.88
2022-09-26T03:08:48.617Z,98961.25
2022-09-26T03:09:08.792Z,98958.63
2022-09-26T03:09:23.074Z,98962.00
2022-09-26T03:09:39.427Z,98958.50
2022-09-26T03:09:52.974Z,98965.22
2022-09-26T03:10:08.438Z,98960.00
2022-09-26T03:10:23.453Z,98955.47
2022-09-26T03:10:37.729Z,98957.09
2022-09-26T03:10:51.502Z,98959.84
2022-09-26T03:11:06.220Z,98959.75
2022-09-26T03:11:24.811Z,98960.53
2022-09-26T03:11:41.660Z,98955.22
2022-09-26T03:11:54.697Z,98958.09
2022-09-26T03:12:09.994Z,98953.53
2022-09-26T03:12:24.988Z,98952.63
2022-09-26T03:12:38.021Z,98959.50
2022-09-26T03:12:51.323Z,98957.84
2022-09-26T03:13:11.436Z,98956.00
2022-09-26T03:13:24.712Z,98952.63
2022-09-26T03:13:40.308Z,98953.47
2022-09-26T03:13:54.167Z,98950.94
2022-09-26T03:14:08.792Z,98957.84
2022-09-26T03:14:23.820Z,98954.28
2022-09-26T03:14:39.108Z,98953.53
2022-09-26T03:14:56.586Z,98957.84
2022-09-26T03:15:16.196Z,98954.16
2022-09-26T03:15:31.718Z,98956.69
2022-09-26T03:15:53.493Z,98954.16
2022-09-26T03:16:09.306Z,98952.44
2022-09-26T03:16:31.839Z,98954.28
2022-09-26T03:16:47.254Z,98954.16
2022-09-26T03:17:01.346Z,98955.22
2022-09-26T03:17:18.768Z,98947.41
2022-09-26T03:17:33.347Z,98950.03
2022-09-26T03:17:52.040Z,98950.84
2022-09-26T03:18:08.091Z,98943.88
2022-09-26T03:18:24.617Z,98951.78
2022-09-26T03:19:20.462Z,98948.00
2022-09-26T03:19:43.698Z,98948.75
2022-09-26T03:20:02.863Z,98943.38
2022-09-26T03:20:17.366Z,98952.88
2022-09-26T03:20:29.322Z,98950.28
2022-09-26T03:20:41.523Z,98941.53
2022-09-26T03:20:56.595Z,98947.59
2022-09-26T03:21:08.665Z,98947.44
2022-09-26T03:21:23.525Z,98944.91
2022-09-26T03:21:37.094Z,98948.59
2022-09-26T03:21:49.225Z,98942.31
2022-09-26T03:22:04.881Z,98945.94
2022-09-26T03:22:17.029Z,98950.13
2022-09-26T03:22:29.126Z,98943.22
2022-09-26T03:22:42.339Z,98946.75
2022-09-26T03:22:54.303Z,98948.59
2022-09-26T03:23:06.315Z,98947.09
2022-09-26T03:23:23.118Z,98940.94
2022-09-26T03:23:35.209Z,98940.03
2022-09-26T03:23:50.712Z,98938.16
2022-09-26T03:24:02.749Z,98939.84
2022-09-26T03:24:15.408Z,98946.91
2022-09-26T03:24:27.822Z,98940.84
2022-09-26T03:24:48.064Z,98934.63
2022-09-26T03:25:00.825Z,98940.84
2022-09-26T03:25:22.438Z,98937.66
2022-09-26T03:25:34.522Z,98937.88
2022-09-26T03:25:56.903Z,98939.66
2022-09-26T03:26:12.957Z,98934.63
2022-09-26T03:26:30.769Z,98936.28
2022-09-26T03:26:42.961Z,98944.03
2022-09-26T03:26:55.600Z,98932.66
2022-09-26T03:27:12.104Z,98931.75
2022-09-26T03:27:24.353Z,98934.28